sensor_id;sensor_type;location;lat;lon;timestamp;P1;durP1;ratioP1;P2;durP2;ratioP2
34571;SDS011;20808;48.974;8.452;2023-03-01T00:06:27;21.45;;;13.93;;
34571;SDS011;20808;48.974;8.452;2023-03-01T00:06:43;20.52;;;13.68;;
34571;SDS011;20808;48.974;8.452;2023-03-01T00:16:36;21.23;;;13.10;;
34571;SDS011;20808;48.974;8.452;2023-03-01T00:16:55;20.50;;;12.70;;
34571;SDS011;20808;48.974;8.452;2023-03-01T00:17:11;20.88;;;13.10;;
34571;SDS011;20808;48.974;8.452;2023-03-01T00:19:20;21.05;;;13.43;;
34571;SDS011;20808;48.974;8.452;2023-03-01T00:19:37;20.02;;;13.18;;
34571;SDS011;20808;48.974;8.452;2023-03-01T00:19:56;19.75;;;13.10;;
34571;SDS011;20808;48.974;8.452;2023-03-01T00:20:11;18.77;;;12.73;;
34571;SDS011;20808;48.974;8.452;2023-03-01T00:20:27;17.90;;;12.40;;
34571;SDS011;20808;48.974;8.452;2023-03-01T00:20:48;17.88;;;12.60;;
34571;SDS011;20808;48.974;8.452;2023-03-01T00:21:05;20.33;;;12.70;;
34571;SDS011;20808;48.974;8.452;2023-03-01T00:21:22;20.88;;;12.93;;
34571;SDS011;20808;48.974;8.452;2023-03-01T00:21:40;21.23;;;13.00;;
34571;SDS011;20808;48.974;8.452;2023-03-01T00:21:56;21.15;;;13.13;;
34571;SDS011;20808;48.974;8.452;2023-03-01T00:22:13;19.98;;;13.40;;
34571;SDS011;20808;48.974;8.452;2023-03-01T00:22:32;19.05;;;13.07;;
34571;SDS011;20808;48.974;8.452;2023-03-01T00:22:47;19.70;;;13.10;;
34571;SDS011;20808;48.974;8.452;2023-03-01T00:23:06;18.75;;;12.75;;
34571;SDS011;20808;48.974;8.452;2023-03-01T00:23:22;18.73;;;12.75;;
34571;SDS011;20808;48.974;8.452;2023-03-01T00:23:38;20.05;;;13.15;;
34571;SDS011;20808;48.974;8.452;2023-03-01T00:23:55;20.17;;;12.63;;
34571;SDS011;20808;48.974;8.452;2023-03-01T00:24:12;21.58;;;12.65;;
34571;SDS011;20808;48.974;8.452;2023-03-01T00:24:28;21.15;;;12.52;;
34571;SDS011;20808;48.974;8.452;2023-03-01T00:24:44;21.35;;;12.20;;
34571;SDS011;20808;48.974;8.452;2023-03-01T00:24:59;20.60;;;12.55;;
34571;SDS011;20808;48.974;8.452;2023-03-01T00:25:15;20.77;;;12.80;;
34571;SDS011;20808;48.974;8.452;2023-03-01T00:25:31;20.15;;;12.65;;
34571;SDS011;20808;48.974;8.452;2023-03-01T00:25:48;19.60;;;12.85;;
34571;SDS011;20808;48.974;8.452;2023-03-01T00:26:05;19.00;;;12.80;;
34571;SDS011;20808;48.974;8.452;2023-03-01T00:26:23;18.15;;;12.30;;
34571;SDS011;20808;48.974;8.452;2023-03-01T00:26:39;18.90;;;12.43;;
34571;SDS011;20808;48.974;8.452;2023-03-01T00:26:55;18.70;;;12.50;;
34571;SDS011;20808;48.974;8.452;2023-03-01T00:27:12;19.15;;;12.68;;
34571;SDS011;20808;48.974;8.452;2023-03-01T00:27:30;18.30;;;12.83;;
34571;SDS011;20808;48.974;8.452;2023-03-01T00:27:46;18.98;;;12.95;;
34571;SDS011;20808;48.974;8.452;2023-03-01T00:28:03;19.15;;;12.65;;
34571;SDS011;20808;48.974;8.452;2023-03-01T00:28:22;19.35;;;12.98;;
34571;SDS011;20808;48.974;8.452;2023-03-01T00:28:41;18.50;;;13.10;;
34571;SDS011;20808;48.974;8.452;2023-03-01T00:28:58;19.35;;;13.32;;
34571;SDS011;20808;48.974;8.452;2023-03-01T00:29:14;19.98;;;13.63;;
34571;SDS011;20808;48.974;8.452;2023-03-01T00:29:30;19.40;;;13.32;;
34571;SDS011;20808;48.974;8.452;2023-03-01T00:29:46;19.60;;;13.10;;
34571;SDS011;20808;48.974;8.452;2023-03-01T00:30:02;19.63;;;12.93;;
34571;SDS011;20808;48.974;8.452;2023-03-01T00:30:20;21.25;;;13.40;;
34571;SDS011;20808;48.974;8.452;2023-03-01T00:30:36;21.58;;;13.40;;
34571;SDS011;20808;48.974;8.452;2023-03-01T00:30:52;23.67;;;13.50;;
34571;SDS011;20808;48.974;8.452;2023-03-01T00:33:31;20.27;;;12.38;;
34571;SDS011;20808;48.974;8.452;2023-03-01T00:33:48;20.25;;;12.40;;
34571;SDS011;20808;48.974;8.452;2023-03-01T00:34:10;20.08;;;13.00;;
34571;SDS011;20808;48.974;8.452;2023-03-01T00:34:29;18.98;;;12.85;;
34571;SDS011;20808;48.974;8.452;2023-03-01T00:43:52;19.40;;;13.18;;
34571;SDS011;20808;48.974;8.452;2023-03-01T00:44:08;19.13;;;12.88;;
34571;SDS011;20808;48.974;8.452;2023-03-01T00:44:25;20.73;;;12.60;;
34571;SDS011;20808;48.974;8.452;2023-03-01T00:44:40;20.43;;;12.50;;
34571;SDS011;20808;48.974;8.452;2023-03-01T00:47:11;21.17;;;13.38;;
34571;SDS011;20808;48.974;8.452;2023-03-01T00:47:28;22.80;;;13.20;;
34571;SDS011;20808;48.974;8.452;2023-03-01T00:47:44;24.38;;;13.75;;
34571;SDS011;20808;48.974;8.452;2023-03-01T00:48:00;22.83;;;13.48;;
34571;SDS011;20808;48.974;8.452;2023-03-01T00:48:15;21.00;;;13.03;;
34571;SDS011;20808;48.974;8.452;2023-03-01T00:48:31;20.65;;;12.95;;
34571;SDS011;20808;48.974;8.452;2023-03-01T00:48:48;20.17;;;12.95;;
34571;SDS011;20808;48.974;8.452;2023-03-01T00:49:05;21.15;;;13.20;;
34571;SDS011;20808;48.974;8.452;2023-03-01T00:49:21;20.23;;;12.98;;
34571;SDS011;20808;48.974;8.452;2023-03-01T00:49:39;18.73;;;12.80;;
34571;SDS011;20808;48.974;8.452;2023-03-01T00:49:55;18.23;;;12.60;;
34571;SDS011;20808;48.974;8.452;2023-03-01T00:50:11;18.20;;;12.90;;
34571;SDS011;20808;48.974;8.452;2023-03-01T00:50:28;18.98;;;12.93;;
34571;SDS011;20808;48.974;8.452;2023-03-01T00:50:44;19.23;;;12.80;;
34571;SDS011;20808;48.974;8.452;2023-03-01T00:51:04;18.27;;;12.40;;
34571;SDS011;20808;48.974;8.452;2023-03-01T00:51:21;19.30;;;12.60;;
34571;SDS011;20808;48.974;8.452;2023-03-01T00:51:38;19.30;;;12.55;;
34571;SDS011;20808;48.974;8.452;2023-03-01T00:51:56;21.38;;;13.30;;
34571;SDS011;20808;48.974;8.452;2023-03-01T00:52:12;20.98;;;13.20;;
34571;SDS011;20808;48.974;8.452;2023-03-01T00:52:27;20.70;;;13.07;;
34571;SDS011;20808;48.974;8.452;2023-03-01T00:52:43;21.02;;;13.10;;
34571;SDS011;20808;48.974;8.452;2023-03-01T00:56:35;19.50;;;13.48;;
34571;SDS011;20808;48.974;8.452;2023-03-01T00:56:52;19.30;;;13.43;;
34571;SDS011;20808;48.974;8.452;2023-03-01T00:57:07;18.98;;;12.90;;
34571;SDS011;20808;48.974;8.452;2023-03-01T00:57:23;18.98;;;12.95;;
34571;SDS011;20808;48.974;8.452;2023-03-01T00:57:39;19.55;;;13.00;;
34571;SDS011;20808;48.974;8.452;2023-03-01T00:57:55;19.50;;;12.82;;
34571;SDS011;20808;48.974;8.452;2023-03-01T00:58:10;19.20;;;12.80;;
34571;SDS011;20808;48.974;8.452;2023-03-01T00:58:27;20.08;;;12.75;;
34571;SDS011;20808;48.974;8.452;2023-03-01T00:58:44;21.48;;;12.90;;
34571;SDS011;20808;48.974;8.452;2023-03-01T00:59:00;21.45;;;12.95;;
34571;SDS011;20808;48.974;8.452;2023-03-01T00:59:16;23.77;;;13.38;;
34571;SDS011;20808;48.974;8.452;2023-03-01T00:59:32;21.90;;;13.13;;
34571;SDS011;20808;48.974;8.452;2023-03-01T00:59:48;19.65;;;12.57;;
34571;SDS011;20808;48.974;8.452;2023-03-01T01:00:05;19.70;;;12.60;;
34571;SDS011;20808;48.974;8.452;2023-03-01T01:00:22;19.92;;;12.90;;
34571;SDS011;20808;48.974;8.452;2023-03-01T01:00:38;20.65;;;13.35;;
34571;SDS011;20808;48.974;8.452;2023-03-01T01:00:53;21.37;;;13.70;;
34571;SDS011;20808;48.974;8.452;2023-03-01T01:01:10;21.83;;;13.40;;
34571;SDS011;20808;48.974;8.452;2023-03-01T01:01:32;21.05;;;13.30;;
34571;SDS011;20808;48.974;8.452;2023-03-01T01:01:48;21.95;;;13.73;;
34571;SDS011;20808;48.974;8.452;2023-03-01T01:02:04;21.05;;;13.70;;
34571;SDS011;20808;48.974;8.452;2023-03-01T01:02:20;19.20;;;13.40;;
34571;SDS011;20808;48.974;8.452;2023-03-01T01:02:36;19.48;;;13.40;;
34571;SDS011;20808;48.974;8.452;2023-03-01T01:02:52;19.23;;;13.27;;
34571;SDS011;20808;48.974;8.452;2023-03-01T01:03:08;19.85;;;13.55;;
34571;SDS011;20808;48.974;8.452;2023-03-01T01:03:24;20.25;;;13.48;;
34571;SDS011;20808;48.974;8.452;2023-03-01T01:03:40;20.10;;;13.38;;
34571;SDS011;20808;48.974;8.452;2023-03-01T01:03:56;20.10;;;13.40;;
34571;SDS011;20808;48.974;8.452;2023-03-01T01:04:13;21.42;;;13.88;;
34571;SDS011;20808;48.974;8.452;2023-03-01T01:04:30;21.33;;;13.90;;
34571;SDS011;20808;48.974;8.452;2023-03-01T01:04:46;22.52;;;14.02;;
34571;SDS011;20808;48.974;8.452;2023-03-01T01:05:02;21.67;;;13.90;;
34571;SDS011;20808;48.974;8.452;2023-03-01T01:05:19;21.38;;;13.65;;
34571;SDS011;20808;48.974;8.452;2023-03-01T01:05:35;21.05;;;13.60;;
34571;SDS011;20808;48.974;8.452;2023-03-01T01:05:51;20.13;;;13.25;;
34571;SDS011;20808;48.974;8.452;2023-03-01T01:06:12;19.48;;;13.00;;
34571;SDS011;20808;48.974;8.452;2023-03-01T01:06:30;18.27;;;12.67;;
34571;SDS011;20808;48.974;8.452;2023-03-01T01:06:47;18.67;;;12.82;;
34571;SDS011;20808;48.974;8.452;2023-03-01T01:07:03;19.35;;;13.02;;
34571;SDS011;20808;48.974;8.452;2023-03-01T01:07:20;20.50;;;13.40;;
34571;SDS011;20808;48.974;8.452;2023-03-01T01:07:36;19.73;;;13.15;;
34571;SDS011;20808;48.974;8.452;2023-03-01T01:07:53;19.75;;;13.15;;
34571;SDS011;20808;48.974;8.452;2023-03-01T01:08:08;18.85;;;13.00;;
34571;SDS011;20808;48.974;8.452;2023-03-01T01:08:24;20.83;;;13.53;;
34571;SDS011;20808;48.974;8.452;2023-03-01T01:08:40;22.65;;;13.52;;
34571;SDS011;20808;48.974;8.452;2023-03-01T01:08:56;21.95;;;13.63;;
34571;SDS011;20808;48.974;8.452;2023-03-01T01:09:14;21.50;;;13.40;;
34571;SDS011;20808;48.974;8.452;2023-03-01T01:09:32;19.20;;;12.77;;
34571;SDS011;20808;48.974;8.452;2023-03-01T01:09:48;19.35;;;12.98;;
34571;SDS011;20808;48.974;8.452;2023-03-01T01:10:04;19.83;;;12.93;;
34571;SDS011;20808;48.974;8.452;2023-03-01T01:10:20;19.88;;;12.93;;
34571;SDS011;20808;48.974;8.452;2023-03-01T01:10:36;18.98;;;12.80;;
34571;SDS011;20808;48.974;8.452;2023-03-01T01:10:52;18.40;;;12.48;;
34571;SDS011;20808;48.974;8.452;2023-03-01T01:11:09;18.38;;;12.60;;
34571;SDS011;20808;48.974;8.452;2023-03-01T01:11:26;19.75;;;13.30;;
34571;SDS011;20808;48.974;8.452;2023-03-01T01:11:42;19.83;;;13.32;;
34571;SDS011;20808;48.974;8.452;2023-03-01T01:11:58;19.98;;;13.30;;
34571;SDS011;20808;48.974;8.452;2023-03-01T01:12:14;19.40;;;13.13;;
34571;SDS011;20808;48.974;8.452;2023-03-01T01:12:31;20.90;;;13.55;;
34571;SDS011;20808;48.974;8.452;2023-03-01T01:12:47;20.83;;;13.75;;
34571;SDS011;20808;48.974;8.452;2023-03-01T01:13:03;22.23;;;13.95;;
34571;SDS011;20808;48.974;8.452;2023-03-01T01:13:19;21.65;;;13.77;;
34571;SDS011;20808;48.974;8.452;2023-03-01T01:13:34;20.60;;;13.43;;
34571;SDS011;20808;48.974;8.452;2023-03-01T01:13:53;20.05;;;13.02;;
34571;SDS011;20808;48.974;8.452;2023-03-01T01:14:09;19.17;;;12.73;;
34571;SDS011;20808;48.974;8.452;2023-03-01T01:14:25;18.77;;;12.63;;
34571;SDS011;20808;48.974;8.452;2023-03-01T01:14:41;18.40;;;12.85;;
34571;SDS011;20808;48.974;8.452;2023-03-01T01:14:57;18.70;;;13.18;;
34571;SDS011;20808;48.974;8.452;2023-03-01T01:15:13;20.00;;;13.82;;
34571;SDS011;20808;48.974;8.452;2023-03-01T01:15:32;20.33;;;14.00;;
34571;SDS011;20808;48.974;8.452;2023-03-01T01:15:49;20.10;;;13.90;;
34571;SDS011;20808;48.974;8.452;2023-03-01T01:16:06;19.30;;;13.27;;
34571;SDS011;20808;48.974;8.452;2023-03-01T01:16:23;18.60;;;12.82;;
34571;SDS011;20808;48.974;8.452;2023-03-01T01:16:40;19.38;;;12.75;;
34571;SDS011;20808;48.974;8.452;2023-03-01T01:16:56;20.98;;;13.02;;
34571;SDS011;20808;48.974;8.452;2023-03-01T01:17:12;21.00;;;13.00;;
34571;SDS011;20808;48.974;8.452;2023-03-01T01:17:29;20.67;;;13.18;;
34571;SDS011;20808;48.974;8.452;2023-03-01T01:17:44;20.50;;;13.40;;
34571;SDS011;20808;48.974;8.452;2023-03-01T01:18:00;20.75;;;13.70;;
34571;SDS011;20808;48.974;8.452;2023-03-01T01:18:16;20.70;;;13.82;;
34571;SDS011;20808;48.974;8.452;2023-03-01T01:18:32;21.77;;;14.23;;
34571;SDS011;20808;48.974;8.452;2023-03-01T01:18:47;22.35;;;14.40;;
34571;SDS011;20808;48.974;8.452;2023-03-01T01:19:05;21.88;;;14.30;;
34571;SDS011;20808;48.974;8.452;2023-03-01T01:19:21;22.10;;;14.15;;
34571;SDS011;20808;48.974;8.452;2023-03-01T01:19:37;20.58;;;13.60;;
34571;SDS011;20808;48.974;8.452;2023-03-01T01:19:53;20.02;;;13.20;;
34571;SDS011;20808;48.974;8.452;2023-03-01T01:20:09;21.17;;;13.50;;
34571;SDS011;20808;48.974;8.452;2023-03-01T01:20:27;20.70;;;13.43;;
34571;SDS011;20808;48.974;8.452;2023-03-01T01:20:43;21.48;;;13.73;;
34571;SDS011;20808;48.974;8.452;2023-03-01T01:21:02;21.38;;;13.50;;
34571;SDS011;20808;48.974;8.452;2023-03-01T01:21:21;21.30;;;13.10;;
34571;SDS011;20808;48.974;8.452;2023-03-01T01:21:38;21.30;;;12.77;;
34571;SDS011;20808;48.974;8.452;2023-03-01T01:21:56;21.98;;;13.30;;
34571;SDS011;20808;48.974;8.452;2023-03-01T01:22:12;22.52;;;13.07;;
34571;SDS011;20808;48.974;8.452;2023-03-01T01:22:27;22.27;;;13.47;;
34571;SDS011;20808;48.974;8.452;2023-03-01T01:22:43;21.40;;;13.15;;
34571;SDS011;20808;48.974;8.452;2023-03-01T01:22:59;20.02;;;12.68;;
34571;SDS011;20808;48.974;8.452;2023-03-01T01:23:15;19.25;;;13.10;;
34571;SDS011;20808;48.974;8.452;2023-03-01T01:23:31;19.35;;;13.00;;
34571;SDS011;20808;48.974;8.452;2023-03-01T01:23:47;19.48;;;13.10;;
34571;SDS011;20808;48.974;8.452;2023-03-01T01:24:03;19.50;;;13.10;;
34571;SDS011;20808;48.974;8.452;2023-03-01T01:24:20;19.73;;;13.20;;
34571;SDS011;20808;48.974;8.452;2023-03-01T01:24:37;20.50;;;13.60;;
34571;SDS011;20808;48.974;8.452;2023-03-01T01:24:52;20.90;;;13.87;;
34571;SDS011;20808;48.974;8.452;2023-03-01T01:25:08;20.80;;;13.68;;
34571;SDS011;20808;48.974;8.452;2023-03-01T01:25:24;19.50;;;13.20;;
34571;SDS011;20808;48.974;8.452;2023-03-01T01:25:40;18.95;;;13.00;;
34571;SDS011;20808;48.974;8.452;2023-03-01T01:25:55;20.48;;;13.18;;
34571;SDS011;20808;48.974;8.452;2023-03-01T01:26:12;22.23;;;13.23;;
34571;SDS011;20808;48.974;8.452;2023-03-01T01:26:31;22.38;;;13.30;;
34571;SDS011;20808;48.974;8.452;2023-03-01T01:26:48;21.67;;;12.90;;
34571;SDS011;20808;48.974;8.452;2023-03-01T01:27:04;20.25;;;12.93;;
34571;SDS011;20808;48.974;8.452;2023-03-01T01:27:21;21.08;;;13.35;;
34571;SDS011;20808;48.974;8.452;2023-03-01T01:27:36;21.20;;;13.77;;
34571;SDS011;20808;48.974;8.452;2023-03-01T01:27:52;20.35;;;13.77;;
34571;SDS011;20808;48.974;8.452;2023-03-01T01:28:08;20.60;;;13.77;;
34571;SDS011;20808;48.974;8.452;2023-03-01T01:28:24;19.83;;;13.45;;
34571;SDS011;20808;48.974;8.452;2023-03-01T01:28:40;19.73;;;13.30;;
34571;SDS011;20808;48.974;8.452;2023-03-01T01:28:58;20.52;;;13.43;;
34571;SDS011;20808;48.974;8.452;2023-03-01T01:29:14;21.20;;;13.60;;
34571;SDS011;20808;48.974;8.452;2023-03-01T01:29:31;21.05;;;13.60;;
34571;SDS011;20808;48.974;8.452;2023-03-01T01:29:47;20.85;;;13.52;;
34571;SDS011;20808;48.974;8.452;2023-03-01T01:30:03;19.40;;;13.50;;
34571;SDS011;20808;48.974;8.452;2023-03-01T01:30:20;19.25;;;13.70;;
34571;SDS011;20808;48.974;8.452;2023-03-01T01:30:36;19.08;;;13.95;;
34571;SDS011;20808;48.974;8.452;2023-03-01T01:30:52;19.92;;;14.00;;
34571;SDS011;20808;48.974;8.452;2023-03-01T01:31:08;20.40;;;13.90;;
34571;SDS011;20808;48.974;8.452;2023-03-01T01:31:25;19.92;;;13.65;;
34571;SDS011;20808;48.974;8.452;2023-03-01T01:31:42;20.02;;;13.32;;
34571;SDS011;20808;48.974;8.452;2023-03-01T01:31:58;20.20;;;13.27;;
34571;SDS011;20808;48.974;8.452;2023-03-01T01:32:14;20.25;;;13.60;;
34571;SDS011;20808;48.974;8.452;2023-03-01T01:32:30;20.45;;;13.88;;
34571;SDS011;20808;48.974;8.452;2023-03-01T01:32:46;21.67;;;14.63;;
34571;SDS011;20808;48.974;8.452;2023-03-01T01:33:02;20.87;;;14.20;;
34571;SDS011;20808;48.974;8.452;2023-03-01T01:33:18;20.33;;;13.93;;
34571;SDS011;20808;48.974;8.452;2023-03-01T01:33:34;21.10;;;13.85;;
34571;SDS011;20808;48.974;8.452;2023-03-01T01:33:50;20.60;;;13.45;;
34571;SDS011;20808;48.974;8.452;2023-03-01T01:34:08;21.83;;;14.00;;
34571;SDS011;20808;48.974;8.452;2023-03-01T01:34:29;21.45;;;14.10;;
34571;SDS011;20808;48.974;8.452;2023-03-01T01:34:45;21.55;;;14.18;;
34571;SDS011;20808;48.974;8.452;2023-03-01T01:35:01;22.70;;;14.70;;
34571;SDS011;20808;48.974;8.452;2023-03-01T01:35:17;21.55;;;14.23;;
34571;SDS011;20808;48.974;8.452;2023-03-01T01:35:33;20.38;;;13.90;;
34571;SDS011;20808;48.974;8.452;2023-03-01T01:35:49;20.27;;;13.75;;
34571;SDS011;20808;48.974;8.452;2023-03-01T01:36:06;19.48;;;13.35;;
34571;SDS011;20808;48.974;8.452;2023-03-01T01:36:23;19.90;;;13.63;;
34571;SDS011;20808;48.974;8.452;2023-03-01T01:36:38;21.10;;;13.90;;
34571;SDS011;20808;48.974;8.452;2023-03-01T01:36:54;21.53;;;14.10;;
34571;SDS011;20808;48.974;8.452;2023-03-01T01:37:10;22.05;;;14.20;;
34571;SDS011;20808;48.974;8.452;2023-03-01T01:37:27;22.10;;;14.32;;
34571;SDS011;20808;48.974;8.452;2023-03-01T01:37:46;21.73;;;14.07;;
34571;SDS011;20808;48.974;8.452;2023-03-01T01:38:01;21.60;;;13.67;;
34571;SDS011;20808;48.974;8.452;2023-03-01T01:38:17;20.73;;;13.50;;
34571;SDS011;20808;48.974;8.452;2023-03-01T01:38:33;20.23;;;13.30;;
34571;SDS011;20808;48.974;8.452;2023-03-01T01:38:49;19.67;;;13.30;;
34571;SDS011;20808;48.974;8.452;2023-03-01T01:39:06;19.95;;;13.68;;
34571;SDS011;20808;48.974;8.452;2023-03-01T01:39:22;21.83;;;13.68;;
34571;SDS011;20808;48.974;8.452;2023-03-01T01:39:38;22.38;;;14.05;;
34571;SDS011;20808;48.974;8.452;2023-03-01T01:39:54;22.10;;;13.90;;
34571;SDS011;20808;48.974;8.452;2023-03-01T01:40:10;22.02;;;13.80;;
34571;SDS011;20808;48.974;8.452;2023-03-01T01:40:26;21.83;;;13.50;;
34571;SDS011;20808;48.974;8.452;2023-03-01T01:40:43;20.90;;;13.40;;
34571;SDS011;20808;48.974;8.452;2023-03-01T01:40:59;20.83;;;13.60;;
34571;SDS011;20808;48.974;8.452;2023-03-01T01:41:15;20.13;;;13.68;;
34571;SDS011;20808;48.974;8.452;2023-03-01T01:41:31;20.05;;;13.60;;
34571;SDS011;20808;48.974;8.452;2023-03-01T01:41:47;21.00;;;13.73;;
34571;SDS011;20808;48.974;8.452;2023-03-01T01:42:03;22.10;;;13.63;;
34571;SDS011;20808;48.974;8.452;2023-03-01T01:42:20;21.70;;;13.60;;
34571;SDS011;20808;48.974;8.452;2023-03-01T01:42:36;20.85;;;13.60;;
34571;SDS011;20808;48.974;8.452;2023-03-01T01:42:52;21.92;;;13.77;;
34571;SDS011;20808;48.974;8.452;2023-03-01T01:43:09;22.40;;;13.93;;
34571;SDS011;20808;48.974;8.452;2023-03-01T01:43:33;22.75;;;14.48;;
34571;SDS011;20808;48.974;8.452;2023-03-01T01:44:28;20.52;;;14.35;;
34571;SDS011;20808;48.974;8.452;2023-03-01T01:44:45;20.65;;;14.23;;
34571;SDS011;20808;48.974;8.452;2023-03-01T01:45:24;20.30;;;13.70;;
34571;SDS011;20808;48.974;8.452;2023-03-01T01:45:43;21.25;;;13.60;;
34571;SDS011;20808;48.974;8.452;2023-03-01T01:45:59;20.90;;;13.55;;
34571;SDS011;20808;48.974;8.452;2023-03-01T01:46:21;20.35;;;13.60;;
34571;SDS011;20808;48.974;8.452;2023-03-01T01:46:44;21.65;;;13.93;;
34571;SDS011;20808;48.974;8.452;2023-03-01T01:47:03;21.77;;;14.20;;
34571;SDS011;20808;48.974;8.452;2023-03-01T01:47:22;21.17;;;13.93;;
34571;SDS011;20808;48.974;8.452;2023-03-01T01:47:39;20.83;;;14.13;;
34571;SDS011;20808;48.974;8.452;2023-03-01T01:47:55;20.73;;;14.00;;
34571;SDS011;20808;48.974;8.452;2023-03-01T01:48:16;21.30;;;14.30;;
34571;SDS011;20808;48.974;8.452;2023-03-01T01:48:38;20.33;;;13.93;;
34571;SDS011;20808;48.974;8.452;2023-03-01T01:48:58;20.45;;;14.00;;
34571;SDS011;20808;48.974;8.452;2023-03-01T01:49:25;20.75;;;14.13;;
34571;SDS011;20808;48.974;8.452;2023-03-01T01:49:47;21.27;;;14.50;;
34571;SDS011;20808;48.974;8.452;2023-03-01T01:50:08;21.42;;;14.70;;
34571;SDS011;20808;48.974;8.452;2023-03-01T01:50:34;21.13;;;14.57;;
34571;SDS011;20808;48.974;8.452;2023-03-01T01:50:55;21.02;;;14.20;;
34571;SDS011;20808;48.974;8.452;2023-03-01T01:51:16;20.67;;;13.90;;
34571;SDS011;20808;48.974;8.452;2023-03-01T01:51:35;21.17;;;13.65;;
34571;SDS011;20808;48.974;8.452;2023-03-01T01:51:55;21.25;;;13.90;;
34571;SDS011;20808;48.974;8.452;2023-03-01T01:52:17;19.92;;;14.00;;
34571;SDS011;20808;48.974;8.452;2023-03-01T01:52:35;21.08;;;13.85;;
34571;SDS011;20808;48.974;8.452;2023-03-01T01:52:53;21.00;;;13.90;;
34571;SDS011;20808;48.974;8.452;2023-03-01T01:53:10;21.85;;;13.90;;
34571;SDS011;20808;48.974;8.452;2023-03-01T01:53:30;20.87;;;14.03;;
34571;SDS011;20808;48.974;8.452;2023-03-01T01:53:47;21.38;;;14.05;;
34571;SDS011;20808;48.974;8.452;2023-03-01T01:54:08;21.77;;;13.95;;
34571;SDS011;20808;48.974;8.452;2023-03-01T01:54:27;22.63;;;14.10;;
34571;SDS011;20808;48.974;8.452;2023-03-01T01:54:50;21.98;;;13.95;;
34571;SDS011;20808;48.974;8.452;2023-03-01T01:55:10;20.42;;;13.90;;
34571;SDS011;20808;48.974;8.452;2023-03-01T01:55:29;19.83;;;13.80;;
34571;SDS011;20808;48.974;8.452;2023-03-01T01:55:47;20.08;;;14.02;;
34571;SDS011;20808;48.974;8.452;2023-03-01T01:56:07;20.88;;;14.20;;
34571;SDS011;20808;48.974;8.452;2023-03-01T01:56:27;20.35;;;14.10;;
34571;SDS011;20808;48.974;8.452;2023-03-01T01:56:47;20.95;;;14.20;;
34571;SDS011;20808;48.974;8.452;2023-03-01T01:57:09;20.60;;;14.10;;
34571;SDS011;20808;48.974;8.452;2023-03-01T01:57:31;20.98;;;14.18;;
34571;SDS011;20808;48.974;8.452;2023-03-01T01:57:52;20.65;;;14.10;;
34571;SDS011;20808;48.974;8.452;2023-03-01T01:58:10;20.20;;;14.10;;
34571;SDS011;20808;48.974;8.452;2023-03-01T01:58:29;21.65;;;14.10;;
34571;SDS011;20808;48.974;8.452;2023-03-01T01:58:45;21.55;;;14.20;;
34571;SDS011;20808;48.974;8.452;2023-03-01T01:59:02;20.98;;;13.98;;
34571;SDS011;20808;48.974;8.452;2023-03-01T01:59:20;20.85;;;14.10;;
34571;SDS011;20808;48.974;8.452;2023-03-01T01:59:39;20.67;;;14.30;;
34571;SDS011;20808;48.974;8.452;2023-03-01T02:00:00;21.40;;;14.70;;
34571;SDS011;20808;48.974;8.452;2023-03-01T02:00:21;22.25;;;15.00;;
34571;SDS011;20808;48.974;8.452;2023-03-01T02:00:39;21.92;;;14.90;;
34571;SDS011;20808;48.974;8.452;2023-03-01T02:00:55;22.55;;;14.80;;
34571;SDS011;20808;48.974;8.452;2023-03-01T02:01:11;21.13;;;14.40;;
34571;SDS011;20808;48.974;8.452;2023-03-01T02:01:27;20.45;;;14.00;;
34571;SDS011;20808;48.974;8.452;2023-03-01T02:01:44;20.02;;;13.60;;
34571;SDS011;20808;48.974;8.452;2023-03-01T02:02:00;19.95;;;13.57;;
34571;SDS011;20808;48.974;8.452;2023-03-01T02:02:18;19.80;;;13.55;;
34571;SDS011;20808;48.974;8.452;2023-03-01T02:02:34;20.20;;;14.05;;
34571;SDS011;20808;48.974;8.452;2023-03-01T02:02:54;19.85;;;13.98;;
34571;SDS011;20808;48.974;8.452;2023-03-01T02:03:13;20.10;;;14.38;;
34571;SDS011;20808;48.974;8.452;2023-03-01T02:03:32;21.90;;;14.38;;
34571;SDS011;20808;48.974;8.452;2023-03-01T02:03:52;23.30;;;15.00;;
34571;SDS011;20808;48.974;8.452;2023-03-01T02:04:08;24.45;;;15.13;;
34571;SDS011;20808;48.974;8.452;2023-03-01T02:04:23;23.50;;;15.18;;
34571;SDS011;20808;48.974;8.452;2023-03-01T02:04:40;22.70;;;14.70;;
34571;SDS011;20808;48.974;8.452;2023-03-01T02:04:58;21.17;;;14.38;;
34571;SDS011;20808;48.974;8.452;2023-03-01T02:05:20;20.58;;;14.45;;
34571;SDS011;20808;48.974;8.452;2023-03-01T02:05:42;21.95;;;15.00;;
34571;SDS011;20808;48.974;8.452;2023-03-01T02:06:03;23.80;;;15.18;;
34571;SDS011;20808;48.974;8.452;2023-03-01T02:06:25;24.30;;;15.10;;
34571;SDS011;20808;48.974;8.452;2023-03-01T02:06:44;23.83;;;14.93;;
34571;SDS011;20808;48.974;8.452;2023-03-01T02:07:07;23.48;;;14.70;;
34571;SDS011;20808;48.974;8.452;2023-03-01T02:07:29;23.10;;;14.77;;
34571;SDS011;20808;48.974;8.452;2023-03-01T02:07:45;23.75;;;14.70;;
34571;SDS011;20808;48.974;8.452;2023-03-01T02:08:02;22.95;;;14.40;;
34571;SDS011;20808;48.974;8.452;2023-03-01T02:08:19;23.20;;;14.13;;
34571;SDS011;20808;48.974;8.452;2023-03-01T02:08:36;22.92;;;14.27;;
34571;SDS011;20808;48.974;8.452;2023-03-01T02:08:55;22.80;;;14.55;;
34571;SDS011;20808;48.974;8.452;2023-03-01T02:09:15;23.13;;;14.90;;
34571;SDS011;20808;48.974;8.452;2023-03-01T02:09:33;23.00;;;15.07;;
34571;SDS011;20808;48.974;8.452;2023-03-01T02:09:51;23.55;;;15.27;;
34571;SDS011;20808;48.974;8.452;2023-03-01T02:10:08;22.38;;;14.80;;
34571;SDS011;20808;48.974;8.452;2023-03-01T02:10:25;21.63;;;14.48;;
34571;SDS011;20808;48.974;8.452;2023-03-01T02:10:42;22.95;;;14.60;;
34571;SDS011;20808;48.974;8.452;2023-03-01T02:11:00;22.85;;;14.98;;
34571;SDS011;20808;48.974;8.452;2023-03-01T02:11:16;22.95;;;15.05;;
34571;SDS011;20808;48.974;8.452;2023-03-01T02:11:33;23.30;;;15.27;;
34571;SDS011;20808;48.974;8.452;2023-03-01T02:11:50;22.17;;;14.98;;
34571;SDS011;20808;48.974;8.452;2023-03-01T02:12:08;22.52;;;14.65;;
34571;SDS011;20808;48.974;8.452;2023-03-01T02:12:24;22.77;;;14.73;;
34571;SDS011;20808;48.974;8.452;2023-03-01T02:12:40;23.38;;;15.18;;
34571;SDS011;20808;48.974;8.452;2023-03-01T02:12:57;23.17;;;15.20;;
34571;SDS011;20808;48.974;8.452;2023-03-01T02:13:13;23.92;;;15.65;;
34571;SDS011;20808;48.974;8.452;2023-03-01T02:13:30;23.33;;;15.52;;
34571;SDS011;20808;48.974;8.452;2023-03-01T02:13:46;23.05;;;15.52;;
34571;SDS011;20808;48.974;8.452;2023-03-01T02:14:03;21.40;;;15.00;;
34571;SDS011;20808;48.974;8.452;2023-03-01T02:14:20;21.80;;;14.70;;
34571;SDS011;20808;48.974;8.452;2023-03-01T02:14:36;21.27;;;14.30;;
34571;SDS011;20808;48.974;8.452;2023-03-01T02:14:52;23.15;;;14.65;;
34571;SDS011;20808;48.974;8.452;2023-03-01T02:15:08;23.45;;;14.77;;
34571;SDS011;20808;48.974;8.452;2023-03-01T02:15:25;23.52;;;15.27;;
34571;SDS011;20808;48.974;8.452;2023-03-01T02:15:41;22.98;;;15.10;;
34571;SDS011;20808;48.974;8.452;2023-03-01T02:15:58;21.90;;;15.00;;
34571;SDS011;20808;48.974;8.452;2023-03-01T02:16:17;21.08;;;15.10;;
34571;SDS011;20808;48.974;8.452;2023-03-01T02:16:33;21.25;;;15.05;;